sensor_id;sensor_type;location;lat;lon;timestamp;temperature;humidity
8939;DHT22;4504;48.810;9.172;2022-08-21T00:00:21;21.30;71.40
8939;DHT22;4504;48.810;9.172;2022-08-21T00:02:51;21.20;71.40
8939;DHT22;4504;48.810;9.172;2022-08-21T00:05:20;21.20;71.30
8939;DHT22;4504;48.810;9.172;2022-08-21T00:07:48;21.10;72.10
8939;DHT22;4504;48.810;9.172;2022-08-21T00:10:15;21.10;73.80
8939;DHT22;4504;48.810;9.172;2022-08-21T00:12:43;21.00;75.70
8939;DHT22;4504;48.810;9.172;2022-08-21T00:15:13;21.00;77.10
8939;DHT22;4504;48.810;9.172;2022-08-21T00:17:41;21.00;78.40
8939;DHT22;4504;48.810;9.172;2022-08-21T00:20:12;20.90;80.00
8939;DHT22;4504;48.810;9.172;2022-08-21T00:22:41;20.90;80.00
8939;DHT22;4504;48.810;9.172;2022-08-21T00:25:10;20.90;80.50
8939;DHT22;4504;48.810;9.172;2022-08-21T00:27:37;20.80;80.90
8939;DHT22;4504;48.810;9.172;2022-08-21T00:30:05;20.80;81.20
8939;DHT22;4504;48.810;9.172;2022-08-21T00:32:33;20.70;81.20
8939;DHT22;4504;48.810;9.172;2022-08-21T00:35:00;20.70;81.10
8939;DHT22;4504;48.810;9.172;2022-08-21T00:37:27;20.70;80.70
8939;DHT22;4504;48.810;9.172;2022-08-21T00:39:55;20.60;80.90
8939;DHT22;4504;48.810;9.172;2022-08-21T00:42:22;20.70;79.80
8939;DHT22;4504;48.810;9.172;2022-08-21T00:44:50;20.70;79.60
8939;DHT22;4504;48.810;9.172;2022-08-21T00:47:18;20.60;78.10
8939;DHT22;4504;48.810;9.172;2022-08-21T00:49:45;20.50;77.20
8939;DHT22;4504;48.810;9.172;2022-08-21T00:52:17;20.60;76.80
8939;DHT22;4504;48.810;9.172;2022-08-21T00:54:46;20.50;76.10
8939;DHT22;4504;48.810;9.172;2022-08-21T00:57:17;20.40;76.10
8939;DHT22;4504;48.810;9.172;2022-08-21T00:59:49;20.40;76.20
8939;DHT22;4504;48.810;9.172;2022-08-21T01:02:18;20.40;76.00
8939;DHT22;4504;48.810;9.172;2022-08-21T01:04:46;20.40;76.40
8939;DHT22;4504;48.810;9.172;2022-08-21T01:07:13;20.30;77.30
8939;DHT22;4504;48.810;9.172;2022-08-21T01:09:40;20.30;79.20
8939;DHT22;4504;48.810;9.172;2022-08-21T01:12:08;20.20;80.90
8939;DHT22;4504;48.810;9.172;2022-08-21T01:14:36;20.20;82.50
8939;DHT22;4504;48.810;9.172;2022-08-21T01:17:04;20.20;83.80
8939;DHT22;4504;48.810;9.172;2022-08-21T01:19:32;20.20;85.10
8939;DHT22;4504;48.810;9.172;2022-08-21T01:22:01;20.20;86.00
8939;DHT22;4504;48.810;9.172;2022-08-21T01:24:28;20.10;86.50
8939;DHT22;4504;48.810;9.172;2022-08-21T01:26:57;20.10;87.20
8939;DHT22;4504;48.810;9.172;2022-08-21T01:29:31;20.00;87.70
8939;DHT22;4504;48.810;9.172;2022-08-21T01:32:04;20.00;88.20
8939;DHT22;4504;48.810;9.172;2022-08-21T01:34:33;19.90;88.00
8939;DHT22;4504;48.810;9.172;2022-08-21T01:37:02;19.90;87.80
8939;DHT22;4504;48.810;9.172;2022-08-21T01:39:29;19.90;87.60
8939;DHT22;4504;48.810;9.172;2022-08-21T01:41:56;19.80;86.40
8939;DHT22;4504;48.810;9.172;2022-08-21T01:44:24;19.80;85.80
8939;DHT22;4504;48.810;9.172;2022-08-21T01:46:52;19.80;84.50
8939;DHT22;4504;48.810;9.172;2022-08-21T01:49:19;19.80;83.70
8939;DHT22;4504;48.810;9.172;2022-08-21T01:51:46;19.80;83.60
8939;DHT22;4504;48.810;9.172;2022-08-21T01:54:14;19.80;83.20
8939;DHT22;4504;48.810;9.172;2022-08-21T01:56:44;19.80;82.60
8939;DHT22;4504;48.810;9.172;2022-08-21T01:59:11;19.80;82.20
8939;DHT22;4504;48.810;9.172;2022-08-21T02:01:38;19.80;82.30
8939;DHT22;4504;48.810;9.172;2022-08-21T02:04:06;19.80;82.50
8939;DHT22;4504;48.810;9.172;2022-08-21T02:06:33;19.70;82.80
8939;DHT22;4504;48.810;9.172;2022-08-21T02:09:00;19.70;83.80
8939;DHT22;4504;48.810;9.172;2022-08-21T02:11:28;19.70;84.40
8939;DHT22;4504;48.810;9.172;2022-08-21T02:13:55;19.70;85.60
8939;DHT22;4504;48.810;9.172;2022-08-21T02:16:22;19.70;87.00
8939;DHT22;4504;48.810;9.172;2022-08-21T02:18:49;19.60;88.10
8939;DHT22;4504;48.810;9.172;2022-08-21T02:21:16;19.60;89.00
8939;DHT22;4504;48.810;9.172;2022-08-21T02:23:44;19.60;89.90
8939;DHT22;4504;48.810;9.172;2022-08-21T02:26:12;19.60;90.20
8939;DHT22;4504;48.810;9.172;2022-08-21T02:28:41;19.50;90.30
8939;DHT22;4504;48.810;9.172;2022-08-21T02:31:08;19.50;90.50
8939;DHT22;4504;48.810;9.172;2022-08-21T02:33:35;19.60;90.70
8939;DHT22;4504;48.810;9.172;2022-08-21T02:36:03;19.60;90.90
8939;DHT22;4504;48.810;9.172;2022-08-21T02:38:33;19.40;91.00
8939;DHT22;4504;48.810;9.172;2022-08-21T02:41:04;19.40;91.40
8939;DHT22;4504;48.810;9.172;2022-08-21T02:43:33;19.30;91.50
8939;DHT22;4504;48.810;9.172;2022-08-21T02:46:04;19.30;91.70
8939;DHT22;4504;48.810;9.172;2022-08-21T02:48:33;19.30;91.90
8939;DHT22;4504;48.810;9.172;2022-08-21T02:51:02;19.20;92.10
8939;DHT22;4504;48.810;9.172;2022-08-21T02:53:31;19.20;92.40
8939;DHT22;4504;48.810;9.172;2022-08-21T02:56:01;19.20;92.60
8939;DHT22;4504;48.810;9.172;2022-08-21T02:58:31;19.10;93.10
8939;DHT22;4504;48.810;9.172;2022-08-21T03:00:58;19.20;93.00
8939;DHT22;4504;48.810;9.172;2022-08-21T03:03:28;19.10;93.10
8939;DHT22;4504;48.810;9.172;2022-08-21T03:05:56;19.00;93.30
8939;DHT22;4504;48.810;9.172;2022-08-21T03:08:23;19.00;93.50
8939;DHT22;4504;48.810;9.172;2022-08-21T03:10:52;19.00;94.00
8939;DHT22;4504;48.810;9.172;2022-08-21T03:13:19;19.00;93.90
8939;DHT22;4504;48.810;9.172;2022-08-21T03:15:47;19.00;94.00
8939;DHT22;4504;48.810;9.172;2022-08-21T03:18:15;19.00;94.10
8939;DHT22;4504;48.810;9.172;2022-08-21T03:20:44;19.00;94.30
8939;DHT22;4504;48.810;9.172;2022-08-21T03:23:12;19.00;94.40
8939;DHT22;4504;48.810;9.172;2022-08-21T03:25:39;19.00;94.70
8939;DHT22;4504;48.810;9.172;2022-08-21T03:28:11;18.90;94.80
8939;DHT22;4504;48.810;9.172;2022-08-21T03:30:38;19.00;95.00
8939;DHT22;4504;48.810;9.172;2022-08-21T03:33:05;18.90;95.00
8939;DHT22;4504;48.810;9.172;2022-08-21T03:35:32;18.90;95.20
8939;DHT22;4504;48.810;9.172;2022-08-21T03:38:00;18.80;95.40
8939;DHT22;4504;48.810;9.172;2022-08-21T03:40:27;18.80;95.70
8939;DHT22;4504;48.810;9.172;2022-08-21T03:42:54;18.70;95.80
8939;DHT22;4504;48.810;9.172;2022-08-21T03:45:21;18.70;95.90
8939;DHT22;4504;48.810;9.172;2022-08-21T03:47:53;18.70;96.00
8939;DHT22;4504;48.810;9.172;2022-08-21T03:50:21;18.70;96.20
8939;DHT22;4504;48.810;9.172;2022-08-21T03:52:49;18.60;96.20
8939;DHT22;4504;48.810;9.172;2022-08-21T03:55:17;18.60;96.40
8939;DHT22;4504;48.810;9.172;2022-08-21T03:57:45;18.60;96.60
8939;DHT22;4504;48.810;9.172;2022-08-21T04:00:13;18.70;96.70
8939;DHT22;4504;48.810;9.172;2022-08-21T04:02:41;18.60;96.70
8939;DHT22;4504;48.810;9.172;2022-08-21T04:05:09;18.50;97.30
8939;DHT22;4504;48.810;9.172;2022-08-21T04:07:36;18.50;97.00
8939;DHT22;4504;48.810;9.172;2022-08-21T04:10:03;18.50;97.20
8939;DHT22;4504;48.810;9.172;2022-08-21T04:12:31;18.50;97.20
8939;DHT22;4504;48.810;9.172;2022-08-21T04:14:59;18.50;97.30
8939;DHT22;4504;48.810;9.172;2022-08-21T04:17:27;18.40;97.40
8939;DHT22;4504;48.810;9.172;2022-08-21T04:19:54;18.40;97.60
8939;DHT22;4504;48.810;9.172;2022-08-21T04:22:22;18.40;97.70
8939;DHT22;4504;48.810;9.172;2022-08-21T04:24:48;18.30;97.70
8939;DHT22;4504;48.810;9.172;2022-08-21T04:27:15;18.30;97.80
8939;DHT22;4504;48.810;9.172;2022-08-21T04:29:44;18.20;97.90
8939;DHT22;4504;48.810;9.172;2022-08-21T04:32:11;18.20;98.10
8939;DHT22;4504;48.810;9.172;2022-08-21T04:34:37;18.20;98.20
8939;DHT22;4504;48.810;9.172;2022-08-21T04:37:04;18.10;98.20
8939;DHT22;4504;48.810;9.172;2022-08-21T04:39:31;18.20;98.40
8939;DHT22;4504;48.810;9.172;2022-08-21T04:41:58;18.10;98.40
8939;DHT22;4504;48.810;9.172;2022-08-21T04:44:25;18.10;98.50
8939;DHT22;4504;48.810;9.172;2022-08-21T04:46:53;18.10;98.60
8939;DHT22;4504;48.810;9.172;2022-08-21T04:49:20;18.00;98.70
8939;DHT22;4504;48.810;9.172;2022-08-21T04:51:48;18.00;98.80
8939;DHT22;4504;48.810;9.172;2022-08-21T04:54:17;18.00;98.90
8939;DHT22;4504;48.810;9.172;2022-08-21T04:56:48;18.00;99.00
8939;DHT22;4504;48.810;9.172;2022-08-21T04:59:19;17.90;99.20
8939;DHT22;4504;48.810;9.172;2022-08-21T05:01:47;17.90;99.30
8939;DHT22;4504;48.810;9.172;2022-08-21T05:04:18;18.00;99.50
8939;DHT22;4504;48.810;9.172;2022-08-21T05:06:51;17.90;99.50
8939;DHT22;4504;48.810;9.172;2022-08-21T05:09:19;17.90;99.60
8939;DHT22;4504;48.810;9.172;2022-08-21T05:11:47;17.80;99.50
8939;DHT22;4504;48.810;9.172;2022-08-21T05:14:14;17.90;99.70
8939;DHT22;4504;48.810;9.172;2022-08-21T05:16:41;17.90;99.60
8939;DHT22;4504;48.810;9.172;2022-08-21T05:19:09;17.90;99.50
8939;DHT22;4504;48.810;9.172;2022-08-21T05:21:40;17.90;99.40
8939;DHT22;4504;48.810;9.172;2022-08-21T05:24:08;18.00;99.40
8939;DHT22;4504;48.810;9.172;2022-08-21T05:26:35;18.00;99.20
8939;DHT22;4504;48.810;9.172;2022-08-21T05:29:03;18.00;99.20
8939;DHT22;4504;48.810;9.172;2022-08-21T05:31:30;18.00;99.30
8939;DHT22;4504;48.810;9.172;2022-08-21T05:33:57;18.10;99.10
8939;DHT22;4504;48.810;9.172;2022-08-21T05:36:23;18.10;99.10
8939;DHT22;4504;48.810;9.172;2022-08-21T05:38:52;18.20;99.00
8939;DHT22;4504;48.810;9.172;2022-08-21T05:41:19;18.20;98.80
8939;DHT22;4504;48.810;9.172;2022-08-21T05:43:46;18.20;98.70
8939;DHT22;4504;48.810;9.172;2022-08-21T05:46:13;18.20;98.20
8939;DHT22;4504;48.810;9.172;2022-08-21T05:48:40;18.20;98.10
8939;DHT22;4504;48.810;9.172;2022-08-21T05:51:09;18.20;98.20
8939;DHT22;4504;48.810;9.172;2022-08-21T05:53:37;18.30;98.40
8939;DHT22;4504;48.810;9.172;2022-08-21T05:56:05;18.30;98.40
8939;DHT22;4504;48.810;9.172;2022-08-21T05:58:33;18.30;98.50
8939;DHT22;4504;48.810;9.172;2022-08-21T06:01:01;18.30;98.50
8939;DHT22;4504;48.810;9.172;2022-08-21T06:03:31;18.40;98.40
8939;DHT22;4504;48.810;9.172;2022-08-21T06:05:58;18.40;98.40
8939;DHT22;4504;48.810;9.172;2022-08-21T06:08:26;18.40;98.40
8939;DHT22;4504;48.810;9.172;2022-08-21T06:10:54;18.50;98.80
8939;DHT22;4504;48.810;9.172;2022-08-21T06:13:23;18.50;98.40
8939;DHT22;4504;48.810;9.172;2022-08-21T06:16:01;18.50;98.30
8939;DHT22;4504;48.810;9.172;2022-08-21T06:18:28;18.60;98.30
8939;DHT22;4504;48.810;9.172;2022-08-21T06:20:55;18.60;98.30
8939;DHT22;4504;48.810;9.172;2022-08-21T06:23:22;18.60;98.30
8939;DHT22;4504;48.810;9.172;2022-08-21T06:25:49;18.60;98.10
8939;DHT22;4504;48.810;9.172;2022-08-21T06:28:16;18.70;97.80
8939;DHT22;4504;48.810;9.172;2022-08-21T06:30:44;18.70;97.40
8939;DHT22;4504;48.810;9.172;2022-08-21T06:33:11;18.70;97.30
8939;DHT22;4504;48.810;9.172;2022-08-21T06:35:38;18.80;97.70
8939;DHT22;4504;48.810;9.172;2022-08-21T06:38:06;18.80;97.80
8939;DHT22;4504;48.810;9.172;2022-08-21T06:40:33;18.90;98.00
8939;DHT22;4504;48.810;9.172;2022-08-21T06:43:05;18.90;97.60
8939;DHT22;4504;48.810;9.172;2022-08-21T06:45:32;18.90;97.50
8939;DHT22;4504;48.810;9.172;2022-08-21T06:48:01;18.90;97.70
8939;DHT22;4504;48.810;9.172;2022-08-21T06:50:29;18.90;97.90
8939;DHT22;4504;48.810;9.172;2022-08-21T06:53:01;18.90;97.00
8939;DHT22;4504;48.810;9.172;2022-08-21T06:55:29;19.00;97.00
8939;DHT22;4504;48.810;9.172;2022-08-21T06:57:56;19.00;96.50
8939;DHT22;4504;48.810;9.172;2022-08-21T07:00:23;19.10;96.20
8939;DHT22;4504;48.810;9.172;2022-08-21T07:02:50;19.20;94.60
8939;DHT22;4504;48.810;9.172;2022-08-21T07:05:18;19.30;93.80
8939;DHT22;4504;48.810;9.172;2022-08-21T07:07:45;19.30;93.60
8939;DHT22;4504;48.810;9.172;2022-08-21T07:10:13;19.40;93.80
8939;DHT22;4504;48.810;9.172;2022-08-21T07:12:40;19.40;93.70
8939;DHT22;4504;48.810;9.172;2022-08-21T07:15:08;19.40;93.50
8939;DHT22;4504;48.810;9.172;2022-08-21T07:17:35;19.50;93.60
8939;DHT22;4504;48.810;9.172;2022-08-21T07:20:03;19.50;93.30
8939;DHT22;4504;48.810;9.172;2022-08-21T07:22:32;19.60;93.20
8939;DHT22;4504;48.810;9.172;2022-08-21T07:24:59;19.60;92.80
8939;DHT22;4504;48.810;9.172;2022-08-21T07:27:26;19.60;92.80
8939;DHT22;4504;48.810;9.172;2022-08-21T07:29:53;19.60;93.00
8939;DHT22;4504;48.810;9.172;2022-08-21T07:32:20;19.70;92.90
8939;DHT22;4504;48.810;9.172;2022-08-21T07:34:47;19.70;92.70
8939;DHT22;4504;48.810;9.172;2022-08-21T07:37:14;19.70;92.70
8939;DHT22;4504;48.810;9.172;2022-08-21T07:39:42;19.80;92.30
8939;DHT22;4504;48.810;9.172;2022-08-21T07:42:09;19.90;92.40
8939;DHT22;4504;48.810;9.172;2022-08-21T07:44:36;19.90;92.50
8939;DHT22;4504;48.810;9.172;2022-08-21T07:47:03;20.00;92.80
8939;DHT22;4504;48.810;9.172;2022-08-21T07:49:31;20.00;92.10
8939;DHT22;4504;48.810;9.172;2022-08-21T07:51:57;20.10;92.00
8939;DHT22;4504;48.810;9.172;2022-08-21T07:54:25;20.20;92.20
8939;DHT22;4504;48.810;9.172;2022-08-21T07:56:53;20.20;91.90
8939;DHT22;4504;48.810;9.172;2022-08-21T07:59:20;20.10;92.10
8939;DHT22;4504;48.810;9.172;2022-08-21T08:01:47;20.20;91.90
8939;DHT22;4504;48.810;9.172;2022-08-21T08:04:14;20.30;91.70
8939;DHT22;4504;48.810;9.172;2022-08-21T08:06:41;20.30;91.20
8939;DHT22;4504;48.810;9.172;2022-08-21T08:09:08;20.30;91.20
8939;DHT22;4504;48.810;9.172;2022-08-21T08:11:36;20.40;91.30
8939;DHT22;4504;48.810;9.172;2022-08-21T08:14:07;20.40;91.20
8939;DHT22;4504;48.810;9.172;2022-08-21T08:16:33;20.50;91.10
8939;DHT22;4504;48.810;9.172;2022-08-21T08:19:00;20.50;90.90
8939;DHT22;4504;48.810;9.172;2022-08-21T08:21:28;20.60;90.30
8939;DHT22;4504;48.810;9.172;2022-08-21T08:23:55;20.70;90.30
8939;DHT22;4504;48.810;9.172;2022-08-21T08:26:22;20.80;90.30
8939;DHT22;4504;48.810;9.172;2022-08-21T08:28:49;20.80;90.00
8939;DHT22;4504;48.810;9.172;2022-08-21T08:31:17;20.90;89.30
8939;DHT22;4504;48.810;9.172;2022-08-21T08:33:44;20.90;88.80
8939;DHT22;4504;48.810;9.172;2022-08-21T08:36:15;21.00;88.10
8939;DHT22;4504;48.810;9.172;2022-08-21T08:38:43;21.00;87.20
8939;DHT22;4504;48.810;9.172;2022-08-21T08:41:12;21.10;87.40
8939;DHT22;4504;48.810;9.172;2022-08-21T08:43:42;21.10;86.80
8939;DHT22;4504;48.810;9.172;2022-08-21T08:46:15;21.20;86.30
8939;DHT22;4504;48.810;9.172;2022-08-21T08:48:49;21.20;86.60
8939;DHT22;4504;48.810;9.172;2022-08-21T08:51:21;21.30;85.80
8939;DHT22;4504;48.810;9.172;2022-08-21T08:53:52;21.40;85.60
8939;DHT22;4504;48.810;9.172;2022-08-21T08:56:26;21.50;82.80
8939;DHT22;4504;48.810;9.172;2022-08-21T08:58:57;21.50;82.60
8939;DHT22;4504;48.810;9.172;2022-08-21T09:01:25;21.50;81.60
8939;DHT22;4504;48.810;9.172;2022-08-21T09:03:53;21.50;81.50
8939;DHT22;4504;48.810;9.172;2022-08-21T09:06:37;21.60;80.90
8939;DHT22;4504;48.810;9.172;2022-08-21T09:09:20;21.60;80.30
8939;DHT22;4504;48.810;9.172;2022-08-21T09:11:59;21.60;79.50
8939;DHT22;4504;48.810;9.172;2022-08-21T09:14:36;21.60;79.00
8939;DHT22;4504;48.810;9.172;2022-08-21T09:17:16;21.70;78.90
8939;DHT22;4504;48.810;9.172;2022-08-21T09:19:58;21.70;79.20
8939;DHT22;4504;48.810;9.172;2022-08-21T09:22:33;21.80;78.90
8939;DHT22;4504;48.810;9.172;2022-08-21T09:25:09;21.90;79.60
8939;DHT22;4504;48.810;9.172;2022-08-21T09:27:38;21.90;79.40
8939;DHT22;4504;48.810;9.172;2022-08-21T09:30:07;22.00;78.90
8939;DHT22;4504;48.810;9.172;2022-08-21T09:32:36;22.10;77.80
8939;DHT22;4504;48.810;9.172;2022-08-21T09:35:10;22.20;77.40
8939;DHT22;4504;48.810;9.172;2022-08-21T09:37:48;22.10;76.20
8939;DHT22;4504;48.810;9.172;2022-08-21T09:40:36;22.20;77.00
8939;DHT22;4504;48.810;9.172;2022-08-21T09:43:10;22.20;77.40
8939;DHT22;4504;48.810;9.172;2022-08-21T09:45:43;22.40;77.30
8939;DHT22;4504;48.810;9.172;2022-08-21T09:48:13;22.40;76.40
8939;DHT22;4504;48.810;9.172;2022-08-21T09:50:42;22.40;76.60
8939;DHT22;4504;48.810;9.172;2022-08-21T09:53:17;22.40;76.40
8939;DHT22;4504;48.810;9.172;2022-08-21T09:55:51;22.40;76.20
8939;DHT22;4504;48.810;9.172;2022-08-21T09:58:45;22.40;77.00
8939;DHT22;4504;48.810;9.172;2022-08-21T10:01:15;22.60;76.40
8939;DHT22;4504;48.810;9.172;2022-08-21T10:03:42;22.70;75.80
8939;DHT22;4504;48.810;9.172;2022-08-21T10:06:22;22.80;74.80
8939;DHT22;4504;48.810;9.172;2022-08-21T10:08:49;23.00;75.00
8939;DHT22;4504;48.810;9.172;2022-08-21T10:11:17;23.20;73.40
8939;DHT22;4504;48.810;9.172;2022-08-21T10:13:54;23.40;71.40
8939;DHT22;4504;48.810;9.172;2022-08-21T10:16:44;23.50;70.60
8939;DHT22;4504;48.810;9.172;2022-08-21T10:19:20;23.50;70.30
8939;DHT22;4504;48.810;9.172;2022-08-21T10:21:59;23.60;70.20
8939;DHT22;4504;48.810;9.172;2022-08-21T10:24:29;23.80;70.20
8939;DHT22;4504;48.810;9.172;2022-08-21T10:27:06;23.80;69.50
8939;DHT22;4504;48.810;9.172;2022-08-21T10:29:45;23.90;69.40
8939;DHT22;4504;48.810;9.172;2022-08-21T10:32:26;23.80;70.00
8939;DHT22;4504;48.810;9.172;2022-08-21T10:35:02;23.70;70.70
8939;DHT22;4504;48.810;9.172;2022-08-21T10:37:52;23.80;70.60
8939;DHT22;4504;48.810;9.172;2022-08-21T10:40:27;23.90;70.80
8939;DHT22;4504;48.810;9.172;2022-08-21T10:43:15;24.00;70.60
8939;DHT22;4504;48.810;9.172;2022-08-21T10:45:52;24.00;70.60
8939;DHT22;4504;48.810;9.172;2022-08-21T10:48:29;24.00;68.70
8939;DHT22;4504;48.810;9.172;2022-08-21T10:51:05;24.00;68.60
8939;DHT22;4504;48.810;9.172;2022-08-21T10:53:41;24.10;68.50
8939;DHT22;4504;48.810;9.172;2022-08-21T10:56:16;24.10;68.60
8939;DHT22;4504;48.810;9.172;2022-08-21T10:58:49;24.20;67.80
8939;DHT22;4504;48.810;9.172;2022-08-21T11:01:24;24.30;68.20
8939;DHT22;4504;48.810;9.172;2022-08-21T11:04:08;24.30;68.80
8939;DHT22;4504;48.810;9.172;2022-08-21T11:06:38;24.40;66.90
8939;DHT22;4504;48.810;9.172;2022-08-21T11:09:11;24.40;66.40
8939;DHT22;4504;48.810;9.172;2022-08-21T11:11:42;24.40;66.00
8939;DHT22;4504;48.810;9.172;2022-08-21T11:14:20;24.50;66.20
8939;DHT22;4504;48.810;9.172;2022-08-21T11:16:53;24.50;66.70
8939;DHT22;4504;48.810;9.172;2022-08-21T11:19:28;24.60;65.60
8939;DHT22;4504;48.810;9.172;2022-08-21T11:22:00;24.50;64.00
8939;DHT22;4504;48.810;9.172;2022-08-21T11:24:35;24.50;64.20
8939;DHT22;4504;48.810;9.172;2022-08-21T11:27:13;24.60;65.00
8939;DHT22;4504;48.810;9.172;2022-08-21T11:29:41;24.70;65.10
8939;DHT22;4504;48.810;9.172;2022-08-21T11:32:29;24.80;63.20
8939;DHT22;4504;48.810;9.172;2022-08-21T11:35:03;24.80;64.30
8939;DHT22;4504;48.810;9.172;2022-08-21T11:37:44;24.90;65.20
8939;DHT22;4504;48.810;9.172;2022-08-21T11:40:28;24.90;63.40
8939;DHT22;4504;48.810;9.172;2022-08-21T11:43:05;25.00;62.30
8939;DHT22;4504;48.810;9.172;2022-08-21T11:45:41;25.10;61.90
8939;DHT22;4504;48.810;9.172;2022-08-21T11:48:16;25.10;61.60
8939;DHT22;4504;48.810;9.172;2022-08-21T11:50:48;25.10;61.70
8939;DHT22;4504;48.810;9.172;2022-08-21T11:53:22;25.20;61.10
8939;DHT22;4504;48.810;9.172;2022-08-21T11:55:56;25.30;60.90
8939;DHT22;4504;48.810;9.172;2022-08-21T11:58:27;25.30;60.80
8939;DHT22;4504;48.810;9.172;2022-08-21T12:00:58;25.40;60.80
8939;DHT22;4504;48.810;9.172;2022-08-21T12:03:30;25.50;59.80
8939;DHT22;4504;48.810;9.172;2022-08-21T12:06:00;25.40;59.60
8939;DHT22;4504;48.810;9.172;2022-08-21T12:08:28;25.40;59.20
8939;DHT22;4504;48.810;9.172;2022-08-21T12:11:04;25.40;59.40
8939;DHT22;4504;48.810;9.172;2022-08-21T12:13:34;25.40;59.60
8939;DHT22;4504;48.810;9.172;2022-08-21T12:16:06;25.50;58.70
8939;DHT22;4504;48.810;9.172;2022-08-21T12:18:34;25.60;58.00
8939;DHT22;4504;48.810;9.172;2022-08-21T12:21:20;25.70;57.40
8939;DHT22;4504;48.810;9.172;2022-08-21T12:23:57;25.60;57.20
8939;DHT22;4504;48.810;9.172;2022-08-21T12:26:32;25.60;57.40
8939;DHT22;4504;48.810;9.172;2022-08-21T12:29:16;25.50;58.30
8939;DHT22;4504;48.810;9.172;2022-08-21T12:31:50;25.50;58.30
8939;DHT22;4504;48.810;9.172;2022-08-21T12:34:18;25.60;57.50
8939;DHT22;4504;48.810;9.172;2022-08-21T12:36:53;25.60;57.60
8939;DHT22;4504;48.810;9.172;2022-08-21T12:39:24;25.80;57.00
8939;DHT22;4504;48.810;9.172;2022-08-21T12:41:56;26.00;56.30
8939;DHT22;4504;48.810;9.172;2022-08-21T12:44:28;26.10;56.60
8939;DHT22;4504;48.810;9.172;2022-08-21T12:46:59;26.20;55.90
8939;DHT22;4504;48.810;9.172;2022-08-21T12:49:31;26.40;56.00
8939;DHT22;4504;48.810;9.172;2022-08-21T12:52:03;26.50;55.80
8939;DHT22;4504;48.810;9.172;2022-08-21T12:54:38;26.70;55.40
8939;DHT22;4504;48.810;9.172;2022-08-21T12:57:08;26.90;55.40
8939;DHT22;4504;48.810;9.172;2022-08-21T12:59:38;27.00;54.40
8939;DHT22;4504;48.810;9.172;2022-08-21T13:02:15;27.10;53.80
8939;DHT22;4504;48.810;9.172;2022-08-21T13:04:43;27.00;53.20
8939;DHT22;4504;48.810;9.172;2022-08-21T13:07:12;27.10;53.80
8939;DHT22;4504;48.810;9.172;2022-08-21T13:09:50;27.00;53.60
8939;DHT22;4504;48.810;9.172;2022-08-21T13:12:21;27.00;53.30
8939;DHT22;4504;48.810;9.172;2022-08-21T13:14:50;27.20;53.30
8939;DHT22;4504;48.810;9.172;2022-08-21T13:17:20;27.20;52.00
8939;DHT22;4504;48.810;9.172;2022-08-21T13:19:58;27.20;51.90
8939;DHT22;4504;48.810;9.172;2022-08-21T13:22:26;27.20;52.40
8939;DHT22;4504;48.810;9.172;2022-08-21T13:24:54;27.30;52.60
8939;DHT22;4504;48.810;9.172;2022-08-21T13:27:26;27.30;52.00
8939;DHT22;4504;48.810;9.172;2022-08-21T13:30:18;27.40;52.00
8939;DHT22;4504;48.810;9.172;2022-08-21T13:32:48;27.30;51.00
8939;DHT22;4504;48.810;9.172;2022-08-21T13:35:18;27.40;51.30
8939;DHT22;4504;48.810;9.172;2022-08-21T13:37:47;27.40;50.90
8939;DHT22;4504;48.810;9.172;2022-08-21T13:40:17;27.50;49.80
8939;DHT22;4504;48.810;9.172;2022-08-21T13:42:47;27.60;49.80
8939;DHT22;4504;48.810;9.172;2022-08-21T13:45:18;27.70;49.20
8939;DHT22;4504;48.810;9.172;2022-08-21T13:47:48;27.90;49.60
8939;DHT22;4504;48.810;9.172;2022-08-21T13:50:16;28.00;48.90
8939;DHT22;4504;48.810;9.172;2022-08-21T13:52:53;28.10;49.30
8939;DHT22;4504;48.810;9.172;2022-08-21T13:55:20;28.20;49.30
8939;DHT22;4504;48.810;9.172;2022-08-21T13:57:59;28.20;48.80
8939;DHT22;4504;48.810;9.172;2022-08-21T14:00:28;28.20;48.40
8939;DHT22;4504;48.810;9.172;2022-08-21T14:03:02;28.20;48.80
8939;DHT22;4504;48.810;9.172;2022-08-21T14:05:32;28.10;48.10
8939;DHT22;4504;48.810;9.172;2022-08-21T14:08:04;28.00;48.70
8939;DHT22;4504;48.810;9.172;2022-08-21T14:10:31;28.00;48.90
8939;DHT22;4504;48.810;9.172;2022-08-21T14:13:05;28.00;48.60
8939;DHT22;4504;48.810;9.172;2022-08-21T14:15:34;28.00;48.70
8939;DHT22;4504;48.810;9.172;2022-08-21T14:18:09;27.90;48.70
8939;DHT22;4504;48.810;9.172;2022-08-21T14:20:39;27.90;48.40
8939;DHT22;4504;48.810;9.172;2022-08-21T14:23:07;27.90;48.30
8939;DHT22;4504;48.810;9.172;2022-08-21T14:25:39;27.80;48.30
8939;DHT22;4504;48.810;9.172;2022-08-21T14:28:15;27.80;48.70
8939;DHT22;4504;48.810;9.172;2022-08-21T14:30:44;27.70;48.20
8939;DHT22;4504;48.810;9.172;2022-08-21T14:33:13;27.70;48.40
8939;DHT22;4504;48.810;9.172;2022-08-21T14:35:43;27.90;47.80
8939;DHT22;4504;48.810;9.172;2022-08-21T14:38:14;28.10;46.70
8939;DHT22;4504;48.810;9.172;2022-08-21T14:40:42;28.20;47.00
8939;DHT22;4504;48.810;9.172;2022-08-21T14:43:11;28.30;47.40
8939;DHT22;4504;48.810;9.172;2022-08-21T14:45:38;28.30;47.40
8939;DHT22;4504;48.810;9.172;2022-08-21T14:48:07;28.40;48.10
8939;DHT22;4504;48.810;9.172;2022-08-21T14:50:34;28.60;47.10
8939;DHT22;4504;48.810;9.172;2022-08-21T14:53:02;28.80;45.80
8939;DHT22;4504;48.810;9.172;2022-08-21T14:55:30;28.90;45.40
8939;DHT22;4504;48.810;9.172;2022-08-21T14:58:19;29.10;46.00
8939;DHT22;4504;48.810;9.172;2022-08-21T15:00:48;29.30;45.60
8939;DHT22;4504;48.810;9.172;2022-08-21T15:03:16;29.50;44.60
8939;DHT22;4504;48.810;9.172;2022-08-21T15:05:43;29.50;44.70
8939;DHT22;4504;48.810;9.172;2022-08-21T15:08:10;29.60;44.60
8939;DHT22;4504;48.810;9.172;2022-08-21T15:10:37;29.60;43.80
8939;DHT22;4504;48.810;9.172;2022-08-21T15:13:04;29.70;42.40
8939;DHT22;4504;48.810;9.172;2022-08-21T15:15:38;29.80;41.90
8939;DHT22;4504;48.810;9.172;2022-08-21T15:18:06;29.80;42.80
8939;DHT22;4504;48.810;9.172;2022-08-21T15:20:33;30.00;43.40
8939;DHT22;4504;48.810;9.172;2022-08-21T15:23:00;30.00;42.60
8939;DHT22;4504;48.810;9.172;2022-08-21T15:25:27;29.90;42.60
8939;DHT22;4504;48.810;9.172;2022-08-21T15:27:54;29.80;42.80
8939;DHT22;4504;48.810;9.172;2022-08-21T15:30:21;29.70;43.30
8939;DHT22;4504;48.810;9.172;2022-08-21T15:32:49;29.60;43.20
8939;DHT22;4504;48.810;9.172;2022-08-21T15:35:18;29.60;42.20
8939;DHT22;4504;48.810;9.172;2022-08-21T15:37:45;29.60;42.00
8939;DHT22;4504;48.810;9.172;2022-08-21T15:40:12;29.70;42.40
8939;DHT22;4504;48.810;9.172;2022-08-21T15:42:40;29.80;42.60
8939;DHT22;4504;48.810;9.172;2022-08-21T15:45:09;30.00;42.40
8939;DHT22;4504;48.810;9.172;2022-08-21T15:47:38;30.00;41.30
8939;DHT22;4504;48.810;9.172;2022-08-21T15:50:09;30.10;41.60
8939;DHT22;4504;48.810;9.172;2022-08-21T15:52:36;30.00;40.90
8939;DHT22;4504;48.810;9.172;2022-08-21T15:55:04;30.10;41.40
8939;DHT22;4504;48.810;9.172;2022-08-21T15:57:31;30.10;41.50
8939;DHT22;4504;48.810;9.172;2022-08-21T16:00:03;29.90;41.30
8939;DHT22;4504;48.810;9.172;2022-08-21T16:02:39;29.60;41.60
8939;DHT22;4504;48.810;9.172;2022-08-21T16:05:09;29.50;42.10
8939;DHT22;4504;48.810;9.172;2022-08-21T16:07:38;29.30;41.70
8939;DHT22;4504;48.810;9.172;2022-08-21T16:10:06;29.30;42.00
8939;DHT22;4504;48.810;9.172;2022-08-21T16:12:36;29.40;43.10
8939;DHT22;4504;48.810;9.172;2022-08-21T16:15:06;29.60;43.20
8939;DHT22;4504;48.810;9.172;2022-08-21T16:17:36;29.70;42.80
8939;DHT22;4504;48.810;9.172;2022-08-21T16:20:08;29.90;42.60